Flight Track Log - Related Links

Times and Time Zones

All times are in EDT time to prevent confusion due to time zone crossing. See the FLG3729 flight status page for this flight to view local times or setup timezone preferences in your user account.

Time Position Orientation Groundspeed Altitude Reporting Facility
EDT Latitude Longitude Course Direction KTS MPH feet Rate Location/Type
Tue 05:58:00 AM 42.7631 -73.8061 283° West 170 196 1,200  Level Boston Center
Tue 05:59:13 AM 42.8211 -73.8356 340° North 211 243 4,100 2,557 Climbing Boston Center
Tue 05:59:55 AM 42.8478 -73.8814 308° West 259 298 6,100 3,412 Climbing Boston Center
Tue 06:00:00 AM 42.8083 -74.1576 281° West  Level FlightAware Approximate
Tue 06:00:55 AM 42.8944 -73.9647 307° West 264 304 9,900  Level Boston Center
Tue 06:01:00 AM 42.8259 -74.2811 281° West  Level FlightAware Approximate
Tue 06:01:55 AM 42.9414 -74.0483 308° West 264 304 12,500  Level Boston Center
Tue 06:02:00 AM 42.8452 -74.4042 283° West  Level FlightAware Approximate
Tue 06:02:55 AM 42.9919 -74.1433 306° West 297 342 14,100  Level Boston Center
Tue 06:03:00 AM 42.8656 -74.5270 283° West  Level FlightAware Approximate
Tue 06:03:55 AM 43.0153 -74.2658 285° West 326 375 16,300  Level Boston Center
Tue 06:04:55 AM 43.0275 -74.3942 277° West 339 390 18,000 1,800 Climbing Boston Center
Tue 06:05:55 AM 43.0378 -74.5308 276° West 358 412 19,900 1,750 Climbing Boston Center
Tue 06:06:55 AM 43.0475 -74.6675 276° West 363 418 21,500 1,550 Climbing Boston Center
Tue 06:07:55 AM 43.0575 -74.8014 276° West 363 418 23,000 1,400 Climbing Boston Center
Tue 06:08:55 AM 43.0692 -74.9383 277° West 368 423 24,300 1,100 Climbing Boston Center
Tue 06:09:55 AM 43.0806 -75.0811 276° West 368 423 25,200 800 Climbing Boston Center
Tue 06:10:55 AM 43.0900 -75.2067 276° West 368 423 25,900 750 Climbing Boston Center
Tue 06:11:55 AM 43.1031 -75.3522 277° West 373 429 26,700 800 Climbing Boston Center
Tue 06:12:55 AM 43.1117 -75.4978 275° West 380 437 27,500 650 Climbing Boston Center
Tue 06:13:55 AM 43.1222 -75.6461 276° West 392 451 28,000 250 Climbing Boston Center
Tue 06:14:55 AM 43.1347 -75.7978 276° West 397 457 28,000  Level Boston Center
Tue 06:15:55 AM 43.1447 -75.9433 275° West 397 457 28,000  Level Boston Center
Tue 06:18:09 AM 43.1553 -76.2742 273° West 373 429 28,000  Level Cleveland Center
Tue 06:19:09 AM 43.1422 -76.4258 263° West 390 449 28,000  Level Cleveland Center
Tue 06:20:09 AM 43.1289 -76.5803 263° West 403 464 28,000  Level Cleveland Center
Tue 06:21:09 AM 43.1136 -76.7464 263° West 413 475 28,000  Level Cleveland Center
Tue 06:22:09 AM 43.0997 -76.9008 263° West 413 475 28,000  Level Cleveland Center
Tue 06:23:09 AM 43.0858 -77.0522 263° West 413 475 28,000  Level Cleveland Center
Tue 06:24:09 AM 43.0717 -77.2067 263° West 413 475 28,000  Level Cleveland Center
Tue 06:25:09 AM 43.0592 -77.3550 263° West 413 475 28,000  Level Cleveland Center
Tue 06:26:09 AM 43.0442 -77.4922 262° West 413 475 28,000  Level Cleveland Center
Tue 06:27:09 AM 42.9958 -77.6339 245° Southwest 408 470 28,000  Level Cleveland Center
Tue 06:28:09 AM 42.9389 -77.7756 241° Southwest 413 475 28,000  Level Cleveland Center
Tue 06:29:09 AM 42.8839 -77.9197 243° Southwest 426 490 28,000  Level Cleveland Center
Tue 06:30:09 AM 42.8222 -78.0553 238° Southwest 431 496 28,000  Level Cleveland Center
Tue 06:31:09 AM 42.7500 -78.1883 234° Southwest 437 503 28,000  Level Cleveland Center
Tue 06:32:09 AM 42.6800 -78.3236 235° Southwest 437 503 28,000  Level Cleveland Center
Tue 06:33:09 AM 42.6556 -78.4658 257° West 400 460 28,000  Level Cleveland Center
Tue 06:34:09 AM 42.6603 -78.6125 273° West 388 447 28,000  Level Cleveland Center
Tue 06:35:09 AM 42.6667 -78.7592 273° West 388 447 28,000  Level Cleveland Center
Tue 06:36:09 AM 42.6689 -78.9031 271° West 388 447 28,000  Level Cleveland Center
Tue 06:37:09 AM 42.6731 -79.0497 272° West 388 447 28,000  Level Cleveland Center
Tue 06:38:09 AM 42.6792 -79.1967 273° West 388 447 28,000  Level Cleveland Center
Tue 06:39:09 AM 42.6828 -79.3461 272° West 388 447 28,000  Level Cleveland Center
Tue 06:40:09 AM 42.6864 -79.4931 272° West 393 452 28,000  Level Cleveland Center
Tue 06:41:09 AM 42.6897 -79.6397 272° West 393 452 28,000  Level Cleveland Center
Tue 06:42:09 AM 42.6950 -79.7867 273° West 393 452 28,000  Level Cleveland Center
Tue 06:43:09 AM 42.6981 -79.9306 272° West 393 452 28,000  Level Cleveland Center
Tue 06:44:09 AM 42.6925 -80.0944 267° West 388 447 28,000 -150 Level Cleveland Center
Tue 06:45:09 AM 42.6972 -80.2414 273° West 388 447 27,700 -600 Descending Cleveland Center
Tue 06:46:09 AM 42.6997 -80.3769 271° West 388 447 26,800 -950 Descending Cleveland Center
Tue 06:47:09 AM 42.7019 -80.5294 271° West 403 464 25,800 -1,000 Descending Cleveland Center
Tue 06:48:09 AM 42.7039 -80.6878 271° West 410 472 24,800 -1,000 Descending Cleveland Center
Tue 06:49:09 AM 42.7081 -80.8431 272° West 416 479 23,800 -1,000 Descending Cleveland Center
Tue 06:50:09 AM 42.6928 -80.9983 262° West 421 484 22,800 -1,000 Descending Cleveland Center
Tue 06:51:09 AM 42.6778 -81.1453 262° West 407 468 21,800 -1,000 Descending Cleveland Center
Tue 06:52:09 AM 42.6622 -81.2861 262° West 394 453 20,800 -900 Descending Cleveland Center
Tue 06:53:09 AM 42.6447 -81.4356 261° West 384 442 20,000 -400 Descending Cleveland Center
Tue 06:54:09 AM 42.6267 -81.5792 260° West 384 442 20,000  Level Cleveland Center
Tue 06:55:09 AM 42.6108 -81.7172 261° West 379 436 20,000  Level Cleveland Center
Tue 06:56:09 AM 42.5908 -81.8550 259° West 379 436 20,000 -100 Level Cleveland Center
Tue 06:57:09 AM 42.5744 -81.9986 261° West 379 436 19,800 -1,050 Descending Cleveland Center
Tue 06:58:09 AM 42.5603 -82.1392 262° West 379 436 17,900 -2,050 Descending Cleveland Center
Tue 06:59:09 AM 42.5417 -82.2683 259° West 379 436 15,700 -2,243 Descending Cleveland Center
Tue 06:59:56 AM 42.5317 -82.3753 263° West 343 395 13,900 -2,019 Descending Cleveland Center
Tue 07:00:56 AM 42.5150 -82.4986 260° West 337 388 12,100 -1,087 Descending Cleveland Center
Tue 07:02:03 AM 42.4797 -82.6242 249° West 321 369 11,600 -947 Descending Cleveland Center
Tue 07:03:09 AM 42.4422 -82.7272 244° Southwest 313 360 10,000 -1,524 Descending Cleveland Center
Tue 07:04:09 AM 42.4217 -82.8222 254° West 284 327 8,400 -1,450 Descending Cleveland Center
Tue 07:05:09 AM 42.4136 -82.9119 263° West 259 298 7,100 -1,150 Descending Cleveland Center
Tue 07:06:09 AM 42.4181 -83.0075 274° West 254 292 6,100 -750 Descending Cleveland Center
Tue 07:07:09 AM 42.4222 -83.1006 274° West 254 292 5,600 -550 Descending Cleveland Center
Tue 07:08:09 AM 42.4100 -83.1789 258° West 241 277 5,000 -800 Descending Cleveland Center
Tue 07:09:09 AM 42.3608 -83.2303 218° Southwest 212 244 4,000 -1,079 Descending Cleveland Center
Tue 07:10:28 AM 42.2953 -83.2781 208° Southwest 165 190 2,500 -1,139 Descending Cleveland Center

Login

Don't have an account? Register now (free) for customized features, flight alerts, and more!